Time;durP1;ratioP1;P1;durP2;ratioP2;P2;SDS_P1;SDS_P2;PMS_P1;PMS_P2;Temp;Humidity;BMP_temperature;BMP_pressure;BME280_temperature;BME280_humidity;BME280_pressure;Samples;Min_cycle;Max_cycle;Signal;HPM_P1;HPM_P2
2023/10/21 08:13:51;;;;;;;0.90;0.57;;;15.80;99.90;;;;;;7895119;27;20364;-85
2023/10/21 08:17:37;;;;;;;1.47;0.70;;;13.30;99.90;;;;;;7894469;28;20183;-86
2023/10/21 08:21:22;;;;;;;2.90;0.30;;;13.40;99.90;;;;;;7876273;28;20209;-86
2023/10/21 08:25:08;;;;;;;2.20;0.40;;;13.60;99.90;;;;;;7883110;28;20204;-86
2023/10/21 08:28:54;;;;;;;1.13;0.43;;;13.90;99.90;;;;;;7872077;28;20197;-86
2023/10/21 08:32:40;;;;;;;0.73;0.40;;;14.10;99.90;;;;;;7884822;22;20225;-88
2023/10/21 08:36:26;;;;;;;2.53;0.33;;;14.30;99.90;;;;;;7844385;28;20189;-88
2023/10/21 08:40:12;;;;;;;2.43;0.40;;;14.30;99.90;;;;;;7855488;28;20186;-88
2023/10/21 08:43:57;;;;;;;6.57;0.50;;;14.40;99.90;;;;;;7850457;28;20252;-88
2023/10/21 08:47:44;;;;;;;1.20;0.40;;;14.50;99.90;;;;;;7847775;28;20185;-86
2023/10/21 08:51:35;;;;;;;1.17;0.60;;;14.40;99.90;;;;;;7859699;28;20213;-92
2023/10/21 08:55:22;;;;;;;0.60;0.30;;;14.40;99.90;;;;;;7861064;28;20185;-89
2023/10/21 08:59:08;;;;;;;0.47;0.20;;;14.50;99.90;;;;;;7859786;28;20292;-88
2023/10/21 09:02:54;;;;;;;2.67;0.30;;;14.60;99.90;;;;;;7860883;28;20205;-87
2023/10/21 09:06:57;;;;;;;1.37;0.50;;;14.70;99.90;;;;;;7861030;28;20272;-88
2023/10/21 09:10:58;;;;;;;0.40;0.37;;;14.80;99.90;;;;;;7876164;28;20208;-87
2023/10/21 09:14:56;;;;;;;0.63;0.40;;;14.70;99.90;;;;;;7857851;28;20205;-90
2023/10/21 09:18:58;;;;;;;0.93;0.40;;;14.90;99.90;;;;;;7854189;28;20199;-90
2023/10/21 09:22:46;;;;;;;4.93;0.50;;;15.10;99.90;;;;;;7836196;28;20208;-89
2023/10/21 09:26:33;;;;;;;0.97;0.43;;;15.20;99.90;;;;;;7830667;28;20182;-88
2023/10/21 09:30:20;;;;;;;1.40;0.50;;;15.30;99.90;;;;;;7834027;28;20293;-89
2023/10/21 09:34:06;;;;;;;0.87;0.30;;;15.30;99.90;;;;;;7837486;28;20213;-87
2023/10/21 09:38:14;;;;;;;25.67;1.80;;;15.40;99.90;;;;;;7824644;28;20185;-91
2023/10/21 09:42:01;;;;;;;39.13;2.57;;;15.50;99.90;;;;;;7836673;28;20225;-88
2023/10/21 09:45:49;;;;;;;3.93;0.47;;;15.50;99.90;;;;;;7814977;28;20183;-89
2023/10/21 09:49:38;;;;;;;0.67;0.37;;;15.50;99.90;;;;;;7823747;28;20595;-89
2023/10/21 09:53:27;;;;;;;2.10;0.30;;;15.60;99.90;;;;;;7831861;28;20210;-89
2023/10/21 09:57:13;;;;;;;0.77;0.30;;;15.60;99.90;;;;;;7835730;28;20170;-89
2023/10/21 10:01:02;;;;;;;0.50;0.40;;;15.60;99.90;;;;;;7838391;28;20190;-89
2023/10/21 10:04:49;;;;;;;1.20;0.33;;;15.60;99.90;;;;;;7812895;28;20575;-89
2023/10/21 10:08:36;;;;;;;0.47;0.20;;;15.70;99.90;;;;;;7833957;28;20182;-88
2023/10/21 10:12:26;;;;;;;1.53;0.30;;;15.80;99.90;;;;;;7837068;28;20241;-89
2023/10/21 10:16:19;;;;;;;1.00;0.40;;;15.80;99.90;;;;;;7836636;28;20178;-90
2023/10/21 10:20:24;;;;;;;0.67;0.30;;;15.90;99.90;;;;;;7819659;28;20182;-89
2023/10/21 10:24:10;;;;;;;1.50;0.43;;;16.00;99.90;;;;;;7825341;28;20260;-91
2023/10/21 10:27:59;;;;;;;0.40;0.40;;;16.00;99.90;;;;;;7824403;28;20524;-90
2023/10/21 10:31:47;;;;;;;0.47;0.40;;;16.00;99.90;;;;;;7827691;28;20220;-89
2023/10/21 10:35:35;;;;;;;2.43;0.30;;;16.10;99.90;;;;;;7822306;28;20663;-90
2023/10/21 10:39:38;;;;;;;0.40;0.40;;;16.10;99.90;;;;;;7810402;28;20232;-89
2023/10/21 10:43:25;;;;;;;0.60;0.30;;;16.20;99.90;;;;;;7822032;28;20317;-90
2023/10/21 10:47:12;;;;;;;2.03;0.40;;;16.20;99.90;;;;;;7803128;28;20209;-90
2023/10/21 10:51:15;;;;;;;0.30;0.30;;;16.20;99.90;;;;;;7810714;28;20813;-89
2023/10/21 10:55:08;;;;;;;0.33;0.23;;;16.30;99.90;;;;;;7844371;28;20685;-89
2023/10/21 10:58:54;;;;;;;1.30;0.40;;;16.30;99.90;;;;;;7837657;28;20162;-90
2023/10/21 11:02:43;;;;;;;0.70;0.30;;;16.30;99.90;;;;;;7834885;28;20228;-90
2023/10/21 11:06:31;;;;;;;0.60;0.40;;;16.30;99.90;;;;;;7831713;28;20186;-90
2023/10/21 11:10:22;;;;;;;2.17;0.40;;;16.30;99.90;;;;;;7831423;28;20217;-90
2023/10/21 11:14:07;;;;;;;1.10;0.50;;;16.30;99.90;;;;;;7809023;28;20199;-89
2023/10/21 11:17:53;;;;;;;3.90;0.40;;;16.40;99.90;;;;;;7823858;28;20646;-89
2023/10/21 11:21:41;;;;;;;2.33;0.20;;;16.40;99.90;;;;;;7830912;28;20201;-90
2023/10/21 11:25:28;;;;;;;0.47;0.47;;;16.30;99.90;;;;;;7833971;28;20658;-90
2023/10/21 11:29:14;;;;;;;0.77;0.30;;;16.30;99.90;;;;;;7825387;28;20438;-90
2023/10/21 11:33:09;;;;;;;1.03;0.20;;;16.30;99.90;;;;;;7834177;28;20213;-90
2023/10/21 11:36:56;;;;;;;0.43;0.40;;;16.30;99.90;;;;;;7833363;28;20181;-89
2023/10/21 11:40:41;;;;;;;0.30;0.30;;;16.40;99.90;;;;;;7827247;28;20178;-89
2023/10/21 11:44:31;;;;;;;2.17;0.30;;;16.40;99.90;;;;;;7834901;28;20205;-90
2023/10/21 11:48:17;;;;;;;1.57;0.30;;;16.50;99.90;;;;;;7833119;28;20178;-88
2023/10/21 11:52:03;;;;;;;0.30;0.30;;;16.50;99.90;;;;;;7833583;28;20210;-88
2023/10/21 12:44:02;;;;;;;1.37;1.17;;;16.80;99.90;;;;;;7827107;28;20295;-89
2023/10/21 12:47:57;;;;;;;39.00;28.23;;;16.80;99.90;;;;;;7811197;28;20178;-89
2023/10/21 12:51:46;;;;;;;1.50;0.67;;;16.80;99.90;;;;;;7831607;28;20756;-89
2023/10/21 12:55:32;;;;;;;0.50;0.50;;;16.80;99.90;;;;;;7801753;28;20199;-90
2023/10/21 12:59:20;;;;;;;0.23;0.23;;;16.90;99.90;;;;;;7803662;28;20174;-89
2023/10/21 13:03:10;;;;;;;4.77;2.63;;;17.00;99.90;;;;;;7807662;28;20190;-91
2023/10/21 13:06:56;;;;;;;0.80;0.80;;;17.00;99.90;;;;;;7816487;28;20258;-91
2023/10/21 13:10:41;;;;;;;3.03;0.60;;;17.00;99.90;;;;;;7830353;28;20796;-91
2023/10/21 13:14:28;;;;;;;1.23;0.50;;;17.10;99.90;;;;;;7838525;28;20201;-91
2023/10/21 13:18:13;;;;;;;0.83;0.80;;;17.10;99.90;;;;;;7836107;28;20250;-90
2023/10/21 13:21:59;;;;;;;3.60;0.70;;;17.10;99.90;;;;;;7836603;28;20698;-91
2023/10/21 13:25:45;;;;;;;1.33;0.40;;;17.10;99.90;;;;;;7837786;28;20661;-90
2023/10/21 13:29:34;;;;;;;0.63;0.27;;;17.00;99.90;;;;;;7837339;28;20170;-90
2023/10/21 13:33:19;;;;;;;0.40;0.30;;;17.00;99.90;;;;;;7839037;28;20282;-90
2023/10/21 13:37:05;;;;;;;1.73;0.43;;;17.00;99.90;;;;;;7837961;28;20178;-88
2023/10/21 13:40:51;;;;;;;0.50;0.30;;;16.90;99.90;;;;;;7840221;28;20528;-88
2023/10/21 13:44:37;;;;;;;0.60;0.40;;;16.90;99.90;;;;;;7822796;28;20237;-90
2023/10/21 13:48:22;;;;;;;0.27;0.27;;;16.80;99.90;;;;;;7812265;28;20231;-89
2023/10/21 13:52:08;;;;;;;1.07;0.50;;;16.70;99.90;;;;;;7817010;28;20210;-90
2023/10/21 13:55:54;;;;;;;0.40;0.40;;;16.70;99.90;;;;;;7807720;28;20280;-90
2023/10/21 13:59:45;;;;;;;0.67;0.27;;;16.70;99.90;;;;;;7809057;28;20181;-89
2023/10/21 14:03:30;;;;;;;0.80;0.60;;;16.70;99.90;;;;;;7832754;28;20209;-91
2023/10/21 14:07:16;;;;;;;4.20;0.50;;;16.60;99.90;;;;;;7837774;28;20178;-91
2023/10/21 14:11:10;;;;;;;1.23;0.77;;;16.60;99.90;;;;;;7828945;28;20263;-90
2023/10/21 14:15:05;;;;;;;0.90;0.33;;;16.60;99.90;;;;;;7806879;28;20690;-88
2023/10/21 14:18:51;;;;;;;0.33;0.20;;;16.60;99.90;;;;;;7807811;28;20146;-90
2023/10/21 14:22:38;;;;;;;0.90;0.37;;;16.60;99.90;;;;;;7808041;28;20205;-91
2023/10/21 14:26:23;;;;;;;7.23;4.40;;;16.60;99.90;;;;;;7808822;28;20206;-90
2023/10/21 14:30:09;;;;;;;9.90;4.47;;;16.60;99.90;;;;;;7837929;28;20258;-89
2023/10/21 14:33:56;;;;;;;2.83;1.60;;;16.60;99.90;;;;;;7866976;22;20299;-89
2023/10/21 14:37:41;;;;;;;1.50;1.10;;;16.60;99.90;;;;;;7832007;28;20197;-89
2023/10/21 14:41:27;;;;;;;2.60;1.10;;;16.50;99.90;;;;;;7826962;28;20584;-88
2023/10/21 14:45:12;;;;;;;4.90;1.13;;;16.50;99.90;;;;;;7826112;28;20508;-89
2023/10/21 14:48:58;;;;;;;1.17;0.80;;;16.50;99.90;;;;;;7808189;23;20594;-90
2023/10/21 14:52:44;;;;;;;3.13;0.60;;;16.50;99.90;;;;;;7775942;28;20565;-90
2023/10/21 14:56:30;;;;;;;1.23;0.60;;;16.40;99.90;;;;;;7755588;28;20204;-87
2023/10/21 15:00:16;;;;;;;1.43;0.80;;;16.50;99.90;;;;;;7774201;28;20648;-88
2023/10/21 15:04:03;;;;;;;2.10;0.63;;;16.70;99.90;;;;;;7772443;28;20671;-89
2023/10/21 15:07:49;;;;;;;7.60;0.93;;;17.00;99.90;;;;;;7776812;28;20203;-88
2023/10/21 15:11:34;;;;;;;0.60;0.60;;;17.20;99.90;;;;;;7788379;28;20207;-89
2023/10/21 15:15:20;;;;;;;2.40;0.60;;;17.40;99.90;;;;;;7773356;28;20183;-87
2023/10/21 15:19:05;;;;;;;2.03;1.00;;;17.40;99.90;;;;;;7776793;28;20199;-88
2023/10/21 15:22:54;;;;;;;4.27;0.67;;;17.50;99.90;;;;;;7773144;28;20264;-88
2023/10/21 15:26:40;;;;;;;1.20;0.50;;;17.50;99.90;;;;;;7766176;28;20737;-88
2023/10/21 15:30:26;;;;;;;0.53;0.50;;;17.50;99.90;;;;;;7775067;28;20195;-88
2023/10/21 15:34:14;;;;;;;1.83;0.60;;;17.50;99.90;;;;;;7776092;28;20633;-88
2023/10/21 15:38:00;;;;;;;3.17;0.50;;;17.40;99.90;;;;;;7772008;28;20200;-89
2023/10/21 15:41:48;;;;;;;1.47;0.70;;;17.30;99.90;;;;;;7774339;28;20191;-88
2023/10/21 15:45:34;;;;;;;8.48;5.15;;;17.30;99.90;;;;;;7775313;28;20213;-88
2023/10/21 15:49:21;;;;;;;6.53;3.30;;;17.20;99.90;;;;;;7776158;28;20214;-89
2023/10/21 15:53:07;;;;;;;4.95;3.67;;;17.20;99.90;;;;;;7777549;28;20195;-87
2023/10/21 15:56:53;;;;;;;3.90;2.80;;;17.20;99.90;;;;;;7775736;28;20223;-88
2023/10/21 16:00:38;;;;;;;7.00;1.70;;;17.10;99.90;;;;;;7776297;28;20203;-88
2023/10/21 16:04:24;;;;;;;5.65;1.40;;;17.10;99.90;;;;;;7776787;28;20266;-88
2023/10/21 16:08:09;;;;;;;3.53;1.30;;;17.00;99.90;;;;;;7774200;28;20257;-87
2023/10/21 16:11:55;;;;;;;2.03;1.17;;;17.00;99.90;;;;;;7770545;28;20204;-88
2023/10/21 16:15:41;;;;;;;1.67;0.98;;;16.90;99.90;;;;;;7764252;28;20378;-87
2023/10/21 16:19:29;;;;;;;0.87;0.73;;;16.80;99.90;;;;;;7762646;28;20203;-88
2023/10/21 16:23:14;;;;;;;2.70;0.80;;;16.70;99.90;;;;;;7773109;28;20219;-88
2023/10/21 16:27:00;;;;;;;1.13;0.70;;;16.60;99.90;;;;;;7770624;28;20211;-88
2023/10/21 16:30:46;;;;;;;1.07;0.93;;;16.50;99.90;;;;;;7772388;28;20293;-88
2023/10/21 16:34:34;;;;;;;1.40;0.93;;;16.50;99.90;;;;;;7778931;28;20179;-89
2023/10/21 16:38:20;;;;;;;1.20;1.00;;;16.50;99.90;;;;;;7779555;28;20207;-88
2023/10/21 16:42:07;;;;;;;1.37;1.27;;;16.50;99.90;;;;;;7780894;28;20183;-88
2023/10/21 16:45:53;;;;;;;1.30;1.20;;;16.40;99.90;;;;;;7775218;28;20187;-88
2023/10/21 16:49:38;;;;;;;2.43;1.47;;;16.40;99.90;;;;;;7769956;28;20683;-88
2023/10/21 16:53:24;;;;;;;1.47;1.23;;;16.40;99.90;;;;;;7777815;28;20234;-88
2023/10/21 16:57:10;;;;;;;1.47;1.37;;;16.40;99.90;;;;;;7760915;28;20626;-87
2023/10/21 17:00:56;;;;;;;2.40;1.20;;;16.30;99.90;;;;;;7775928;28;20266;-88
2023/10/21 17:04:43;;;;;;;1.93;1.20;;;16.30;99.90;;;;;;7772495;28;20628;-87
2023/10/21 17:08:34;;;;;;;1.77;1.10;;;16.20;99.90;;;;;;7777144;28;20206;-87
2023/10/21 17:12:19;;;;;;;2.43;1.50;;;16.10;99.90;;;;;;7781349;28;20257;-88
2023/10/21 17:16:05;;;;;;;5.35;2.20;;;16.00;99.90;;;;;;7777895;28;20194;-88
2023/10/21 17:19:51;;;;;;;3.20;2.30;;;15.90;99.90;;;;;;7779244;28;20203;-88
2023/10/21 17:23:37;;;;;;;3.83;2.60;;;15.90;99.90;;;;;;7779667;28;20188;-87
2023/10/21 17:27:23;;;;;;;8.47;4.20;;;16.00;99.90;;;;;;7778463;28;20214;-88
2023/10/21 17:31:09;;;;;;;8.23;4.30;;;16.00;99.90;;;;;;7780756;28;20245;-89
2023/10/21 17:34:55;;;;;;;5.93;3.27;;;16.00;99.90;;;;;;7778356;28;20179;-88
2023/10/21 17:38:40;;;;;;;3.07;1.80;;;16.00;99.90;;;;;;7778237;28;20207;-88
2023/10/21 17:42:26;;;;;;;1.42;1.15;;;15.90;99.90;;;;;;7778861;28;20179;-88
2023/10/21 17:46:12;;;;;;;1.37;1.00;;;15.80;99.90;;;;;;7778022;28;20243;-88
2023/10/21 17:49:57;;;;;;;1.23;0.93;;;15.90;99.90;;;;;;7778156;28;20191;-88
2023/10/21 17:53:43;;;;;;;1.10;0.90;;;15.80;99.90;;;;;;7777109;28;20589;-88
2023/10/21 17:57:30;;;;;;;1.40;0.87;;;15.80;99.90;;;;;;7772879;28;20245;-87
2023/10/21 18:01:15;;;;;;;1.00;0.83;;;15.80;99.90;;;;;;7779371;28;20179;-87
2023/10/21 18:05:01;;;;;;;1.30;0.90;;;15.80;99.90;;;;;;7775012;28;20208;-88
2023/10/21 18:08:46;;;;;;;0.70;0.70;;;15.80;99.90;;;;;;7777068;28;20620;-88
2023/10/21 18:12:32;;;;;;;2.10;0.73;;;15.80;99.90;;;;;;7777494;28;20819;-88
2023/10/21 18:16:19;;;;;;;1.00;0.90;;;15.80;99.90;;;;;;7774897;28;20737;-88
2023/10/21 18:20:09;;;;;;;3.47;2.10;;;15.80;99.90;;;;;;7786242;28;20198;-86
2023/10/21 18:23:54;;;;;;;15.57;7.97;;;15.80;99.90;;;;;;7776999;28;20222;-87
2023/10/21 18:27:40;;;;;;;56.63;25.63;;;15.60;99.90;;;;;;7776120;28;20223;-88
2023/10/21 18:31:26;;;;;;;19.40;10.10;;;15.50;99.90;;;;;;7776726;28;20199;-88
2023/10/21 18:35:11;;;;;;;21.93;6.87;;;15.50;99.90;;;;;;7776936;28;20187;-87
2023/10/21 18:38:57;;;;;;;18.27;13.30;;;15.40;99.90;;;;;;7777106;28;20207;-88
2023/10/21 18:42:47;;;;;;;9.70;8.00;;;15.40;99.90;;;;;;7777149;28;20194;-88
2023/10/21 18:46:32;;;;;;;5.27;3.87;;;15.40;99.90;;;;;;7774420;28;20722;-88
2023/10/21 18:50:18;;;;;;;5.77;4.40;;;15.40;99.90;;;;;;7771802;28;20568;-88
2023/10/21 18:54:05;;;;;;;4.43;2.60;;;15.40;99.90;;;;;;7776678;28;20777;-88
2023/10/21 18:57:51;;;;;;;4.87;3.43;;;15.40;99.90;;;;;;7774776;28;20226;-88
2023/10/21 19:01:39;;;;;;;4.63;3.40;;;15.30;99.90;;;;;;7776610;28;20180;-87
2023/10/21 19:05:25;;;;;;;4.20;2.60;;;15.30;99.90;;;;;;7774741;28;20246;-88
2023/10/21 19:09:13;;;;;;;3.07;2.40;;;15.30;99.90;;;;;;7771388;28;20234;-88
2023/10/21 19:12:59;;;;;;;2.00;1.80;;;15.30;99.90;;;;;;7747281;28;20203;-88
2023/10/21 19:16:44;;;;;;;3.80;2.57;;;15.30;99.90;;;;;;7762073;28;20199;-88
2023/10/21 19:20:32;;;;;;;3.57;3.27;;;15.20;99.90;;;;;;7774514;28;20229;-87
2023/10/21 19:24:20;;;;;;;6.97;5.23;;;15.20;99.90;;;;;;7774100;28;20171;-87
2023/10/21 19:28:07;;;;;;;6.17;4.77;;;15.20;99.90;;;;;;7774629;28;20203;-88
2023/10/21 19:31:53;;;;;;;6.77;5.40;;;15.10;99.90;;;;;;7775178;28;20579;-88
2023/10/21 19:35:42;;;;;;;5.03;3.70;;;15.10;99.90;;;;;;7759091;28;20184;-87
2023/10/21 19:39:29;;;;;;;10.00;6.67;;;15.10;99.90;;;;;;7766428;28;20199;-88
2023/10/21 19:43:16;;;;;;;7.50;4.80;;;15.10;99.90;;;;;;7749292;28;20195;-88
2023/10/21 19:47:03;;;;;;;4.57;3.50;;;15.10;99.90;;;;;;7772946;28;20215;-87
2023/10/21 19:50:49;;;;;;;5.77;3.43;;;15.00;99.90;;;;;;7775220;28;20210;-87
2023/10/21 19:54:34;;;;;;;5.10;2.87;;;15.00;99.90;;;;;;7775196;28;20254;-87
2023/10/21 19:58:21;;;;;;;6.87;3.40;;;15.00;99.90;;;;;;7774439;28;20203;-87
2023/10/21 20:02:07;;;;;;;6.33;4.00;;;14.90;99.90;;;;;;7775355;28;20214;-88
2023/10/21 20:05:54;;;;;;;6.90;5.73;;;14.90;99.90;;;;;;7774868;28;20180;-88
2023/10/21 20:09:42;;;;;;;9.50;6.53;;;14.90;99.90;;;;;;7775054;28;20571;-88
2023/10/21 20:13:28;;;;;;;6.93;3.93;;;14.90;99.90;;;;;;7776175;28;20198;-88
2023/10/21 20:17:14;;;;;;;4.80;3.93;;;14.80;99.90;;;;;;7775026;28;20937;-87
2023/10/21 20:21:04;;;;;;;5.93;3.40;;;14.80;99.90;;;;;;7771599;28;20926;-88
2023/10/21 20:24:50;;;;;;;5.37;2.63;;;14.80;99.90;;;;;;7773116;28;20266;-86
2023/10/21 20:28:37;;;;;;;3.70;2.73;;;14.80;99.90;;;;;;7772139;28;20214;-88
2023/10/21 20:32:23;;;;;;;3.47;2.67;;;14.80;99.90;;;;;;7771701;28;20684;-88
2023/10/21 20:36:13;;;;;;;5.77;2.80;;;14.80;99.90;;;;;;7763136;28;20573;-88
2023/10/21 20:39:59;;;;;;;4.67;2.87;;;14.70;99.90;;;;;;7773318;28;20175;-87
2023/10/21 20:43:45;;;;;;;4.07;3.37;;;14.70;99.90;;;;;;7774571;28;20668;-88
2023/10/21 20:47:30;;;;;;;5.17;4.20;;;14.70;99.90;;;;;;7796876;28;20298;-86
2023/10/21 20:51:16;;;;;;;6.17;4.70;;;14.70;99.90;;;;;;7783649;28;20204;-86
2023/10/21 20:55:02;;;;;;;8.07;6.03;;;14.70;99.90;;;;;;7775041;28;20184;-86
2023/10/21 20:58:49;;;;;;;7.80;5.13;;;14.70;99.90;;;;;;7780046;28;20195;-86
2023/10/21 21:02:34;;;;;;;7.67;4.73;;;14.60;99.90;;;;;;7777950;28;20226;-87
2023/10/21 21:06:20;;;;;;;8.73;4.73;;;14.60;99.90;;;;;;7777876;28;20184;-87
2023/10/21 21:10:07;;;;;;;7.97;4.80;;;14.70;99.90;;;;;;7778555;28;20184;-87
2023/10/21 21:13:52;;;;;;;7.97;5.40;;;14.60;99.90;;;;;;7777568;28;20210;-86
2023/10/21 21:17:39;;;;;;;8.67;5.60;;;14.60;99.90;;;;;;7775078;28;20195;-87
2023/10/21 21:21:24;;;;;;;9.43;6.83;;;14.60;99.90;;;;;;7783829;28;20570;-87
2023/10/21 21:25:10;;;;;;;13.30;7.57;;;14.60;99.90;;;;;;7783832;28;20245;-87
2023/10/21 21:28:56;;;;;;;11.87;8.23;;;14.60;99.90;;;;;;7781895;28;20761;-87
2023/10/21 21:32:41;;;;;;;13.70;9.50;;;14.50;99.90;;;;;;7781681;28;20203;-87
2023/10/21 21:36:30;;;;;;;13.00;9.30;;;14.50;99.90;;;;;;7781810;28;20179;-87
2023/10/21 21:40:15;;;;;;;14.73;9.10;;;14.50;99.90;;;;;;7782129;28;20190;-87
2023/10/21 21:44:01;;;;;;;15.97;10.10;;;14.50;99.90;;;;;;7782940;28;20867;-87
2023/10/21 21:47:46;;;;;;;13.17;8.80;;;14.50;99.90;;;;;;7779287;28;20226;-87
2023/10/21 21:51:33;;;;;;;10.90;6.80;;;14.40;99.90;;;;;;7780763;28;20286;-86
2023/10/21 21:55:19;;;;;;;8.33;5.33;;;14.50;99.90;;;;;;7782581;28;20172;-87
2023/10/21 21:59:05;;;;;;;8.50;4.63;;;14.50;99.90;;;;;;7783436;28;20255;-87
2023/10/21 22:02:50;;;;;;;8.07;4.93;;;14.40;99.90;;;;;;7782041;28;20175;-87
2023/10/21 22:06:36;;;;;;;7.23;5.00;;;14.40;99.90;;;;;;7773991;28;20208;-86
2023/10/21 22:10:22;;;;;;;8.10;4.50;;;14.40;99.90;;;;;;7764685;28;20191;-88
2023/10/21 22:14:07;;;;;;;6.37;4.00;;;14.40;99.90;;;;;;7779237;28;20200;-87
2023/10/21 22:17:56;;;;;;;6.57;4.67;;;14.40;99.90;;;;;;7781539;28;20694;-86
2023/10/21 22:21:44;;;;;;;8.40;4.63;;;14.40;99.90;;;;;;7782178;28;20210;-88
2023/10/21 22:25:39;;;;;;;5.63;3.60;;;14.40;99.90;;;;;;7781031;28;20183;-87
2023/10/21 22:29:28;;;;;;;3.43;2.93;;;14.30;99.90;;;;;;7782356;28;20866;-86
2023/10/21 22:33:18;;;;;;;5.83;3.37;;;14.30;99.90;;;;;;7757822;28;20191;-87
2023/10/21 22:37:04;;;;;;;5.07;2.70;;;14.30;99.90;;;;;;7769985;28;20695;-87
2023/10/21 22:40:53;;;;;;;4.13;2.50;;;14.30;99.90;;;;;;7781006;28;20807;-87
2023/10/21 22:44:39;;;;;;;3.93;3.20;;;14.30;99.90;;;;;;7771726;28;20196;-88
2023/10/21 22:48:25;;;;;;;7.70;3.93;;;14.30;99.90;;;;;;7794077;28;20219;-87
2023/10/21 22:52:11;;;;;;;3.67;2.97;;;14.30;99.90;;;;;;7780833;28;20681;-87
2023/10/21 22:55:56;;;;;;;5.50;3.50;;;14.30;99.90;;;;;;7779317;28;20667;-87
2023/10/21 22:59:42;;;;;;;8.70;3.70;;;14.30;99.90;;;;;;7779762;28;20672;-87
2023/10/21 23:03:29;;;;;;;5.40;3.87;;;14.30;99.90;;;;;;7780474;28;20667;-87
2023/10/21 23:07:16;;;;;;;3.67;2.80;;;14.30;99.90;;;;;;7777798;28;20205;-86
2023/10/21 23:11:03;;;;;;;5.37;4.00;;;14.30;99.90;;;;;;7766812;28;20665;-86
2023/10/21 23:14:49;;;;;;;5.93;3.83;;;14.30;99.90;;;;;;7778646;28;20183;-86
2023/10/21 23:18:36;;;;;;;14.53;4.63;;;14.30;99.90;;;;;;7774926;28;20257;-86
2023/10/21 23:22:22;;;;;;;4.53;3.80;;;14.20;99.90;;;;;;7777757;28;20520;-87
2023/10/21 23:26:10;;;;;;;6.70;3.60;;;14.20;99.90;;;;;;7778819;28;20171;-87
2023/10/21 23:29:56;;;;;;;5.53;4.07;;;14.10;99.90;;;;;;7774941;28;20238;-86
2023/10/21 23:33:42;;;;;;;5.83;4.40;;;14.10;99.90;;;;;;7792797;28;20202;-87
2023/10/21 23:37:27;;;;;;;6.83;4.30;;;14.10;99.90;;;;;;7761243;28;20292;-87
2023/10/21 23:41:14;;;;;;;5.20;4.10;;;14.10;99.90;;;;;;7774782;28;20713;-87
2023/10/21 23:45:00;;;;;;;6.93;4.50;;;14.10;99.90;;;;;;7778622;28;20183;-88
2023/10/21 23:48:46;;;;;;;6.43;5.20;;;14.10;99.90;;;;;;7771767;28;20692;-87
2023/10/21 23:52:32;;;;;;;6.30;4.43;;;14.10;99.90;;;;;;7770328;28;20229;-86
2023/10/21 23:56:20;;;;;;;6.67;4.50;;;14.10;99.90;;;;;;7778859;28;20280;-87
